sensor_id;sensor_type;location;lat;lon;timestamp;noise_LAeq;noise_LA_min;noise_LA_max;noise_LA01;noise_LA95
81493;Laerm;70900;51.798;10.954;2023-07-16T00:01:31;39.49;36.30;44.40;;
81493;Laerm;70900;51.798;10.954;2023-07-16T00:03:57;39.36;33.37;49.09;;
81493;Laerm;70900;51.798;10.954;2023-07-16T00:06:22;37.39;33.58;42.40;;
81493;Laerm;70900;51.798;10.954;2023-07-16T00:08:47;36.76;32.73;42.84;;
81493;Laerm;70900;51.798;10.954;2023-07-16T00:11:13;41.41;36.73;47.35;;
81493;Laerm;70900;51.798;10.954;2023-07-16T00:13:38;36.97;34.54;43.03;;
81493;Laerm;70900;51.798;10.954;2023-07-16T00:16:06;38.06;33.57;43.30;;
81493;Laerm;70900;51.798;10.954;2023-07-16T00:18:31;37.30;33.21;45.53;;
81493;Laerm;70900;51.798;10.954;2023-07-16T00:20:57;38.52;34.12;41.55;;
81493;Laerm;70900;51.798;10.954;2023-07-16T00:23:23;45.33;38.69;54.94;;
81493;Laerm;70900;51.798;10.954;2023-07-16T00:25:48;40.09;37.28;44.77;;
81493;Laerm;70900;51.798;10.954;2023-07-16T00:28:13;38.84;34.51;47.95;;
81493;Laerm;70900;51.798;10.954;2023-07-16T00:30:39;41.65;35.05;49.61;;
81493;Laerm;70900;51.798;10.954;2023-07-16T00:33:04;39.99;35.78;51.46;;
81493;Laerm;70900;51.798;10.954;2023-07-16T00:35:30;38.47;33.74;47.54;;
81493;Laerm;70900;51.798;10.954;2023-07-16T00:37:55;37.59;32.58;48.61;;
81493;Laerm;70900;51.798;10.954;2023-07-16T00:40:20;33.85;30.01;41.59;;
81493;Laerm;70900;51.798;10.954;2023-07-16T00:42:46;40.90;29.29;51.45;;
81493;Laerm;70900;51.798;10.954;2023-07-16T00:45:12;44.66;29.45;58.60;;
81493;Laerm;70900;51.798;10.954;2023-07-16T00:47:39;35.11;29.19;45.12;;
81493;Laerm;70900;51.798;10.954;2023-07-16T00:50:05;40.26;32.27;47.81;;
81493;Laerm;70900;51.798;10.954;2023-07-16T00:52:30;43.11;33.94;49.39;;
81493;Laerm;70900;51.798;10.954;2023-07-16T00:54:57;39.34;31.53;45.40;;
81493;Laerm;70900;51.798;10.954;2023-07-16T00:57:23;37.93;32.63;54.66;;
81493;Laerm;70900;51.798;10.954;2023-07-16T00:59:48;42.89;31.73;55.72;;
81493;Laerm;70900;51.798;10.954;2023-07-16T01:02:14;38.05;29.69;44.31;;
81493;Laerm;70900;51.798;10.954;2023-07-16T01:04:39;31.75;28.00;35.09;;
81493;Laerm;70900;51.798;10.954;2023-07-16T01:07:04;32.71;28.50;51.54;;
81493;Laerm;70900;51.798;10.954;2023-07-16T01:09:31;36.10;29.57;44.58;;
81493;Laerm;70900;51.798;10.954;2023-07-16T01:11:57;33.54;29.50;37.97;;
81493;Laerm;70900;51.798;10.954;2023-07-16T01:14:24;35.03;30.33;43.79;;
81493;Laerm;70900;51.798;10.954;2023-07-16T01:16:49;49.88;31.18;66.40;;
81493;Laerm;70900;51.798;10.954;2023-07-16T01:19:17;37.88;31.69;56.92;;
81493;Laerm;70900;51.798;10.954;2023-07-16T01:21:48;39.82;32.61;46.28;;
81493;Laerm;70900;51.798;10.954;2023-07-16T01:26:51;36.45;29.66;48.92;;
81493;Laerm;70900;51.798;10.954;2023-07-16T01:31:58;33.87;28.19;41.72;;
81493;Laerm;70900;51.798;10.954;2023-07-16T01:34:24;49.79;28.66;66.56;;
81493;Laerm;70900;51.798;10.954;2023-07-16T01:36:53;38.38;30.89;49.39;;
81493;Laerm;70900;51.798;10.954;2023-07-16T01:39:18;37.48;30.93;44.42;;
81493;Laerm;70900;51.798;10.954;2023-07-16T01:41:44;32.82;28.70;41.94;;
81493;Laerm;70900;51.798;10.954;2023-07-16T01:44:09;38.09;29.69;44.83;;
81493;Laerm;70900;51.798;10.954;2023-07-16T01:46:35;39.31;29.28;47.04;;
81493;Laerm;70900;51.798;10.954;2023-07-16T01:49:00;30.79;27.21;38.28;;
81493;Laerm;70900;51.798;10.954;2023-07-16T01:51:26;32.38;25.77;40.37;;
81493;Laerm;70900;51.798;10.954;2023-07-16T01:53:51;38.22;25.85;52.08;;
81493;Laerm;70900;51.798;10.954;2023-07-16T01:56:16;36.55;29.00;47.67;;
81493;Laerm;70900;51.798;10.954;2023-07-16T01:58:42;33.03;27.79;42.62;;
81493;Laerm;70900;51.798;10.954;2023-07-16T02:01:07;31.55;26.78;37.02;;
81493;Laerm;70900;51.798;10.954;2023-07-16T02:03:33;34.92;30.26;51.03;;
81493;Laerm;70900;51.798;10.954;2023-07-16T02:05:58;29.72;26.94;33.39;;
81493;Laerm;70900;51.798;10.954;2023-07-16T02:08:24;29.75;26.27;34.32;;
81493;Laerm;70900;51.798;10.954;2023-07-16T02:10:49;32.76;26.64;40.76;;
81493;Laerm;70900;51.798;10.954;2023-07-16T02:13:15;33.68;27.75;40.79;;
81493;Laerm;70900;51.798;10.954;2023-07-16T02:15:40;32.89;26.34;39.22;;
81493;Laerm;70900;51.798;10.954;2023-07-16T02:18:05;35.77;28.30;42.34;;
81493;Laerm;70900;51.798;10.954;2023-07-16T02:20:31;32.32;27.25;40.43;;
81493;Laerm;70900;51.798;10.954;2023-07-16T02:22:57;33.03;29.13;40.32;;
81493;Laerm;70900;51.798;10.954;2023-07-16T02:25:22;32.18;27.61;36.07;;
81493;Laerm;70900;51.798;10.954;2023-07-16T02:27:48;32.29;25.78;39.09;;
81493;Laerm;70900;51.798;10.954;2023-07-16T02:30:14;30.76;25.70;38.55;;
81493;Laerm;70900;51.798;10.954;2023-07-16T02:32:39;32.01;26.47;39.83;;
81493;Laerm;70900;51.798;10.954;2023-07-16T02:35:05;31.01;26.11;40.45;;
81493;Laerm;70900;51.798;10.954;2023-07-16T02:37:31;33.10;25.58;45.96;;
81493;Laerm;70900;51.798;10.954;2023-07-16T02:39:56;35.58;25.19;49.79;;
81493;Laerm;70900;51.798;10.954;2023-07-16T02:42:24;32.06;24.10;48.51;;
81493;Laerm;70900;51.798;10.954;2023-07-16T02:44:50;30.42;24.15;42.93;;
81493;Laerm;70900;51.798;10.954;2023-07-16T02:47:15;32.06;24.33;50.04;;
81493;Laerm;70900;51.798;10.954;2023-07-16T02:49:41;33.45;25.66;46.27;;
81493;Laerm;70900;51.798;10.954;2023-07-16T02:52:06;30.57;24.94;40.34;;
81493;Laerm;70900;51.798;10.954;2023-07-16T02:54:32;31.11;24.48;48.23;;
81493;Laerm;70900;51.798;10.954;2023-07-16T02:56:57;30.69;24.20;45.05;;
81493;Laerm;70900;51.798;10.954;2023-07-16T02:59:23;32.61;24.68;51.03;;
81493;Laerm;70900;51.798;10.954;2023-07-16T03:01:49;33.30;24.85;49.00;;
81493;Laerm;70900;51.798;10.954;2023-07-16T03:04:14;38.71;25.37;61.91;;
81493;Laerm;70900;51.798;10.954;2023-07-16T03:06:40;36.17;26.23;52.56;;
81493;Laerm;70900;51.798;10.954;2023-07-16T03:09:05;33.18;25.43;47.91;;
81493;Laerm;70900;51.798;10.954;2023-07-16T03:11:31;36.09;25.90;50.60;;
81493;Laerm;70900;51.798;10.954;2023-07-16T03:13:56;40.33;26.68;50.21;;
81493;Laerm;70900;51.798;10.954;2023-07-16T03:16:21;42.11;25.77;50.34;;
81493;Laerm;70900;51.798;10.954;2023-07-16T03:18:47;43.14;27.88;54.16;;
81493;Laerm;70900;51.798;10.954;2023-07-16T03:21:13;44.76;28.58;57.08;;
81493;Laerm;70900;51.798;10.954;2023-07-16T03:23:38;46.60;29.25;55.27;;
81493;Laerm;70900;51.798;10.954;2023-07-16T03:26:04;47.30;29.15;57.14;;
81493;Laerm;70900;51.798;10.954;2023-07-16T03:28:29;50.84;29.61;64.20;;
81493;Laerm;70900;51.798;10.954;2023-07-16T03:30:55;40.68;28.51;55.41;;
81493;Laerm;70900;51.798;10.954;2023-07-16T03:33:20;41.72;30.84;54.29;;
81493;Laerm;70900;51.798;10.954;2023-07-16T03:35:46;38.27;29.92;52.36;;
81493;Laerm;70900;51.798;10.954;2023-07-16T03:38:12;40.92;28.27;55.20;;
81493;Laerm;70900;51.798;10.954;2023-07-16T03:40:37;39.84;29.45;56.70;;
81493;Laerm;70900;51.798;10.954;2023-07-16T03:43:03;40.23;27.75;53.74;;
81493;Laerm;70900;51.798;10.954;2023-07-16T03:45:29;37.99;28.84;51.81;;
81493;Laerm;70900;51.798;10.954;2023-07-16T03:47:54;35.10;28.79;49.33;;
81493;Laerm;70900;51.798;10.954;2023-07-16T03:50:20;48.29;29.41;63.73;;
81493;Laerm;70900;51.798;10.954;2023-07-16T03:52:45;37.73;26.28;50.89;;
81493;Laerm;70900;51.798;10.954;2023-07-16T03:55:11;53.46;26.22;71.19;;
81493;Laerm;70900;51.798;10.954;2023-07-16T03:57:36;38.26;27.36;55.02;;
81493;Laerm;70900;51.798;10.954;2023-07-16T04:00:04;35.29;26.25;52.07;;
81493;Laerm;70900;51.798;10.954;2023-07-16T04:02:32;40.02;28.40;56.26;;
81493;Laerm;70900;51.798;10.954;2023-07-16T04:04:57;41.95;29.12;54.43;;
81493;Laerm;70900;51.798;10.954;2023-07-16T04:07:23;36.99;26.66;55.41;;
81493;Laerm;70900;51.798;10.954;2023-07-16T04:09:48;35.71;28.03;45.49;;
81493;Laerm;70900;51.798;10.954;2023-07-16T04:12:16;47.42;29.34;63.03;;
81493;Laerm;70900;51.798;10.954;2023-07-16T04:14:42;37.42;28.63;48.17;;
81493;Laerm;70900;51.798;10.954;2023-07-16T04:17:07;37.62;31.60;55.89;;
81493;Laerm;70900;51.798;10.954;2023-07-16T04:19:33;44.80;31.90;58.13;;
81493;Laerm;70900;51.798;10.954;2023-07-16T04:21:59;47.03;32.89;61.32;;
81493;Laerm;70900;51.798;10.954;2023-07-16T04:24:25;49.42;29.58;66.13;;
81493;Laerm;70900;51.798;10.954;2023-07-16T04:26:52;35.54;28.94;47.09;;
81493;Laerm;70900;51.798;10.954;2023-07-16T04:29:18;37.55;30.55;51.79;;
81493;Laerm;70900;51.798;10.954;2023-07-16T04:31:43;35.88;30.01;47.98;;
81493;Laerm;70900;51.798;10.954;2023-07-16T04:34:09;36.24;30.40;42.29;;
81493;Laerm;70900;51.798;10.954;2023-07-16T04:36:34;48.69;29.66;63.98;;
81493;Laerm;70900;51.798;10.954;2023-07-16T04:38:59;38.75;29.89;55.91;;
81493;Laerm;70900;51.798;10.954;2023-07-16T04:41:25;36.91;29.87;47.33;;
81493;Laerm;70900;51.798;10.954;2023-07-16T04:43:53;38.17;30.36;51.56;;
81493;Laerm;70900;51.798;10.954;2023-07-16T04:46:18;39.76;30.71;53.58;;
81493;Laerm;70900;51.798;10.954;2023-07-16T04:48:43;38.26;29.83;54.30;;
81493;Laerm;70900;51.798;10.954;2023-07-16T04:51:09;44.15;29.33;59.68;;
81493;Laerm;70900;51.798;10.954;2023-07-16T04:53:34;38.57;30.43;53.04;;
81493;Laerm;70900;51.798;10.954;2023-07-16T04:56:00;45.07;33.76;57.76;;
81493;Laerm;70900;51.798;10.954;2023-07-16T04:58:25;43.79;33.82;58.03;;
81493;Laerm;70900;51.798;10.954;2023-07-16T05:00:51;43.54;36.97;51.09;;
81493;Laerm;70900;51.798;10.954;2023-07-16T05:03:16;41.50;34.26;48.78;;
81493;Laerm;70900;51.798;10.954;2023-07-16T05:05:41;40.04;33.54;53.01;;
81493;Laerm;70900;51.798;10.954;2023-07-16T05:08:07;44.37;38.45;50.95;;
81493;Laerm;70900;51.798;10.954;2023-07-16T05:10:33;49.33;36.55;63.92;;
81493;Laerm;70900;51.798;10.954;2023-07-16T05:12:58;46.52;38.13;54.59;;
81493;Laerm;70900;51.798;10.954;2023-07-16T05:15:24;44.39;39.34;53.71;;
81493;Laerm;70900;51.798;10.954;2023-07-16T05:17:49;48.57;36.42;64.07;;
81493;Laerm;70900;51.798;10.954;2023-07-16T05:20:15;43.86;35.28;51.82;;
81493;Laerm;70900;51.798;10.954;2023-07-16T05:22:40;43.19;34.55;53.36;;
81493;Laerm;70900;51.798;10.954;2023-07-16T05:25:06;52.24;36.96;67.89;;
81493;Laerm;70900;51.798;10.954;2023-07-16T05:27:31;46.72;37.41;57.57;;
81493;Laerm;70900;51.798;10.954;2023-07-16T05:29:56;46.23;39.37;52.89;;
81493;Laerm;70900;51.798;10.954;2023-07-16T05:32:22;50.06;41.07;61.40;;
81493;Laerm;70900;51.798;10.954;2023-07-16T05:34:48;51.39;38.86;62.09;;
81493;Laerm;70900;51.798;10.954;2023-07-16T05:37:13;46.02;40.43;53.75;;
81493;Laerm;70900;51.798;10.954;2023-07-16T05:39:39;45.48;39.66;55.09;;
81493;Laerm;70900;51.798;10.954;2023-07-16T05:42:05;50.08;39.56;64.28;;
81493;Laerm;70900;51.798;10.954;2023-07-16T05:44:30;47.64;39.80;57.00;;
81493;Laerm;70900;51.798;10.954;2023-07-16T05:46:55;49.36;41.77;55.77;;
81493;Laerm;70900;51.798;10.954;2023-07-16T05:49:21;47.67;37.89;60.49;;
81493;Laerm;70900;51.798;10.954;2023-07-16T05:51:46;52.97;39.34;68.64;;
81493;Laerm;70900;51.798;10.954;2023-07-16T05:54:11;48.70;39.80;56.65;;
81493;Laerm;70900;51.798;10.954;2023-07-16T05:56:37;46.64;39.69;60.41;;
81493;Laerm;70900;51.798;10.954;2023-07-16T05:59:02;51.00;41.28;65.36;;
81493;Laerm;70900;51.798;10.954;2023-07-16T06:01:28;44.28;38.72;52.41;;
81493;Laerm;70900;51.798;10.954;2023-07-16T06:03:53;42.70;37.26;51.96;;
81493;Laerm;70900;51.798;10.954;2023-07-16T06:06:19;51.40;37.85;64.59;;
81493;Laerm;70900;51.798;10.954;2023-07-16T06:08:44;46.86;38.73;54.24;;
81493;Laerm;70900;51.798;10.954;2023-07-16T06:11:10;49.22;41.53;56.01;;
81493;Laerm;70900;51.798;10.954;2023-07-16T06:13:35;47.31;41.09;58.84;;
81493;Laerm;70900;51.798;10.954;2023-07-16T06:16:01;50.91;38.45;60.86;;
81493;Laerm;70900;51.798;10.954;2023-07-16T06:18:26;47.89;39.70;66.03;;
81493;Laerm;70900;51.798;10.954;2023-07-16T06:20:51;54.18;39.36;71.11;;
81493;Laerm;70900;51.798;10.954;2023-07-16T06:23:21;49.40;39.73;64.17;;
81493;Laerm;70900;51.798;10.954;2023-07-16T06:25:47;53.82;37.37;64.79;;
81493;Laerm;70900;51.798;10.954;2023-07-16T06:28:13;47.15;39.38;54.18;;
81493;Laerm;70900;51.798;10.954;2023-07-16T06:30:39;53.49;39.89;69.82;;
81493;Laerm;70900;51.798;10.954;2023-07-16T06:33:04;41.86;36.72;48.08;;
81493;Laerm;70900;51.798;10.954;2023-07-16T06:35:30;50.95;35.13;64.34;;
81493;Laerm;70900;51.798;10.954;2023-07-16T06:37:56;52.25;31.56;66.51;;
81493;Laerm;70900;51.798;10.954;2023-07-16T06:40:23;53.56;36.22;72.79;;
81493;Laerm;70900;51.798;10.954;2023-07-16T06:42:48;54.53;35.43;70.37;;
81493;Laerm;70900;51.798;10.954;2023-07-16T06:45:14;38.29;31.28;51.26;;
81493;Laerm;70900;51.798;10.954;2023-07-16T06:47:40;38.52;31.24;46.59;;
81493;Laerm;70900;51.798;10.954;2023-07-16T06:50:06;37.47;32.74;49.55;;
81493;Laerm;70900;51.798;10.954;2023-07-16T06:52:32;48.42;33.60;63.98;;
81493;Laerm;70900;51.798;10.954;2023-07-16T06:54:57;39.21;31.36;58.82;;
81493;Laerm;70900;51.798;10.954;2023-07-16T06:57:23;42.68;32.44;55.55;;
81493;Laerm;70900;51.798;10.954;2023-07-16T06:59:48;51.15;32.90;67.98;;
81493;Laerm;70900;51.798;10.954;2023-07-16T07:02:15;50.36;37.73;65.98;;
81493;Laerm;70900;51.798;10.954;2023-07-16T07:04:40;48.91;34.66;64.74;;
81493;Laerm;70900;51.798;10.954;2023-07-16T07:07:06;50.60;32.90;65.77;;
81493;Laerm;70900;51.798;10.954;2023-07-16T07:09:31;50.87;35.33;67.12;;
81493;Laerm;70900;51.798;10.954;2023-07-16T07:11:57;46.79;34.31;59.35;;
81493;Laerm;70900;51.798;10.954;2023-07-16T07:14:22;52.12;32.44;67.97;;
81493;Laerm;70900;51.798;10.954;2023-07-16T07:16:48;54.76;38.20;68.64;;
81493;Laerm;70900;51.798;10.954;2023-07-16T07:19:13;51.35;43.58;62.66;;
81493;Laerm;70900;51.798;10.954;2023-07-16T07:21:38;53.84;36.61;68.92;;
81493;Laerm;70900;51.798;10.954;2023-07-16T07:24:04;42.27;34.21;52.16;;
81493;Laerm;70900;51.798;10.954;2023-07-16T07:26:33;53.49;42.30;66.54;;
81493;Laerm;70900;51.798;10.954;2023-07-16T07:28:58;47.26;38.69;68.94;;
81493;Laerm;70900;51.798;10.954;2023-07-16T07:31:27;48.67;37.40;64.22;;
81493;Laerm;70900;51.798;10.954;2023-07-16T07:33:52;56.59;37.75;73.66;;
81493;Laerm;70900;51.798;10.954;2023-07-16T07:36:19;45.72;35.16;59.94;;
81493;Laerm;70900;51.798;10.954;2023-07-16T07:38:44;48.33;37.30;58.67;;
81493;Laerm;70900;51.798;10.954;2023-07-16T07:41:10;53.58;37.17;71.56;;
81493;Laerm;70900;51.798;10.954;2023-07-16T07:43:35;47.37;39.15;63.46;;
81493;Laerm;70900;51.798;10.954;2023-07-16T07:46:01;52.64;39.93;68.88;;
81493;Laerm;70900;51.798;10.954;2023-07-16T07:48:26;50.63;38.80;63.02;;
81493;Laerm;70900;51.798;10.954;2023-07-16T07:50:51;52.24;40.36;64.04;;
81493;Laerm;70900;51.798;10.954;2023-07-16T07:53:17;46.54;37.97;60.34;;
81493;Laerm;70900;51.798;10.954;2023-07-16T07:55:45;50.81;38.49;63.47;;
81493;Laerm;70900;51.798;10.954;2023-07-16T07:58:11;47.97;38.76;62.28;;
81493;Laerm;70900;51.798;10.954;2023-07-16T08:00:36;52.85;36.86;68.72;;
81493;Laerm;70900;51.798;10.954;2023-07-16T08:03:02;48.42;34.49;64.25;;
81493;Laerm;70900;51.798;10.954;2023-07-16T08:05:27;51.56;39.38;64.00;;
81493;Laerm;70900;51.798;10.954;2023-07-16T08:07:53;45.02;39.56;53.02;;
81493;Laerm;70900;51.798;10.954;2023-07-16T08:10:18;48.53;37.06;62.68;;
81493;Laerm;70900;51.798;10.954;2023-07-16T08:12:44;51.16;37.72;65.27;;
81493;Laerm;70900;51.798;10.954;2023-07-16T08:15:10;55.13;43.78;68.50;;
81493;Laerm;70900;51.798;10.954;2023-07-16T08:17:39;50.46;40.81;60.96;;
81493;Laerm;70900;51.798;10.954;2023-07-16T08:20:05;53.82;42.01;67.53;;
81493;Laerm;70900;51.798;10.954;2023-07-16T08:22:32;50.58;36.54;67.76;;
81493;Laerm;70900;51.798;10.954;2023-07-16T08:24:57;61.20;41.48;85.03;;
81493;Laerm;70900;51.798;10.954;2023-07-16T08:27:23;46.64;36.35;59.43;;
81493;Laerm;70900;51.798;10.954;2023-07-16T08:29:48;50.24;35.32;63.02;;
81493;Laerm;70900;51.798;10.954;2023-07-16T08:32:13;59.42;37.66;76.33;;
81493;Laerm;70900;51.798;10.954;2023-07-16T08:34:39;42.98;37.42;50.73;;
81493;Laerm;70900;51.798;10.954;2023-07-16T08:37:04;50.04;37.57;63.92;;
81493;Laerm;70900;51.798;10.954;2023-07-16T08:39:30;43.54;36.99;52.18;;
81493;Laerm;70900;51.798;10.954;2023-07-16T08:41:56;50.58;38.42;62.32;;
81493;Laerm;70900;51.798;10.954;2023-07-16T08:44:21;49.79;37.98;63.43;;
81493;Laerm;70900;51.798;10.954;2023-07-16T08:46:47;54.06;35.69;71.11;;
81493;Laerm;70900;51.798;10.954;2023-07-16T08:49:12;42.87;35.28;53.28;;
81493;Laerm;70900;51.798;10.954;2023-07-16T08:51:38;48.70;34.47;61.77;;
81493;Laerm;70900;51.798;10.954;2023-07-16T08:54:04;53.42;33.34;69.92;;
81493;Laerm;70900;51.798;10.954;2023-07-16T08:56:29;52.58;36.10;65.30;;
81493;Laerm;70900;51.798;10.954;2023-07-16T08:58:55;51.63;37.58;64.19;;
81493;Laerm;70900;51.798;10.954;2023-07-16T09:01:23;42.17;36.25;54.63;;
81493;Laerm;70900;51.798;10.954;2023-07-16T09:03:49;58.91;34.45;80.21;;
81493;Laerm;70900;51.798;10.954;2023-07-16T09:06:14;38.81;34.36;47.97;;
81493;Laerm;70900;51.798;10.954;2023-07-16T09:08:40;46.81;35.28;59.54;;
81493;Laerm;70900;51.798;10.954;2023-07-16T09:11:05;53.44;38.85;69.31;;
81493;Laerm;70900;51.798;10.954;2023-07-16T09:13:36;43.50;37.08;53.12;;
81493;Laerm;70900;51.798;10.954;2023-07-16T09:16:01;47.63;36.92;59.72;;
81493;Laerm;70900;51.798;10.954;2023-07-16T09:18:27;52.41;38.79;64.88;;
81493;Laerm;70900;51.798;10.954;2023-07-16T09:20:58;54.88;37.85;69.23;;
81493;Laerm;70900;51.798;10.954;2023-07-16T09:23:27;49.73;38.43;63.13;;
81493;Laerm;70900;51.798;10.954;2023-07-16T09:25:53;47.35;37.21;64.17;;
81493;Laerm;70900;51.798;10.954;2023-07-16T09:28:19;54.21;36.35;65.73;;
81493;Laerm;70900;51.798;10.954;2023-07-16T09:30:45;46.42;36.68;57.15;;
81493;Laerm;70900;51.798;10.954;2023-07-16T09:33:17;54.21;37.70;70.33;;
81493;Laerm;70900;51.798;10.954;2023-07-16T09:35:43;49.60;37.48;61.80;;
81493;Laerm;70900;51.798;10.954;2023-07-16T09:38:09;43.80;38.04;54.20;;
81493;Laerm;70900;51.798;10.954;2023-07-16T09:40:37;51.38;37.38;64.26;;
81493;Laerm;70900;51.798;10.954;2023-07-16T09:43:03;57.89;37.29;71.46;;
81493;Laerm;70900;51.798;10.954;2023-07-16T09:45:30;55.56;38.91;67.88;;
81493;Laerm;70900;51.798;10.954;2023-07-16T09:47:55;55.82;35.70;74.41;;
81493;Laerm;70900;51.798;10.954;2023-07-16T09:50:24;51.49;36.56;63.72;;
81493;Laerm;70900;51.798;10.954;2023-07-16T09:52:52;52.05;36.97;66.87;;
81493;Laerm;70900;51.798;10.954;2023-07-16T09:55:18;50.17;36.91;70.51;;
81493;Laerm;70900;51.798;10.954;2023-07-16T09:57:43;54.79;37.26;69.34;;
81493;Laerm;70900;51.798;10.954;2023-07-16T10:00:09;47.80;37.23;58.41;;
81493;Laerm;70900;51.798;10.954;2023-07-16T10:02:39;62.68;36.82;80.50;;
81493;Laerm;70900;51.798;10.954;2023-07-16T10:05:11;42.33;37.40;58.13;;
81493;Laerm;70900;51.798;10.954;2023-07-16T10:07:36;48.05;36.86;58.77;;
81493;Laerm;70900;51.798;10.954;2023-07-16T10:10:02;53.60;40.54;64.03;;
81493;Laerm;70900;51.798;10.954;2023-07-16T10:12:32;52.77;39.19;69.31;;
81493;Laerm;70900;51.798;10.954;2023-07-16T10:14:57;44.73;38.49;50.00;;
81493;Laerm;70900;51.798;10.954;2023-07-16T10:17:24;53.31;38.42;65.09;;
81493;Laerm;70900;51.798;10.954;2023-07-16T10:25:07;54.50;40.09;67.03;;
81493;Laerm;70900;51.798;10.954;2023-07-16T10:27:33;57.89;36.60;77.98;;
81493;Laerm;70900;51.798;10.954;2023-07-16T10:30:03;53.51;37.95;70.90;;
81493;Laerm;70900;51.798;10.954;2023-07-16T10:32:30;52.81;41.21;66.81;;
81493;Laerm;70900;51.798;10.954;2023-07-16T10:34:55;51.77;37.24;67.40;;
81493;Laerm;70900;51.798;10.954;2023-07-16T10:37:21;52.71;35.97;65.02;;
81493;Laerm;70900;51.798;10.954;2023-07-16T10:39:50;49.31;37.00;61.85;;
81493;Laerm;70900;51.798;10.954;2023-07-16T10:42:16;45.07;37.22;54.19;;
81493;Laerm;70900;51.798;10.954;2023-07-16T10:44:42;46.16;39.52;56.91;;
81493;Laerm;70900;51.798;10.954;2023-07-16T10:47:08;48.06;37.91;64.33;;
81493;Laerm;70900;51.798;10.954;2023-07-16T10:49:34;54.47;40.06;71.72;;
81493;Laerm;70900;51.798;10.954;2023-07-16T10:52:00;51.62;41.88;62.90;;
81493;Laerm;70900;51.798;10.954;2023-07-16T10:54:25;48.86;40.64;59.96;;
81493;Laerm;70900;51.798;10.954;2023-07-16T10:56:51;44.77;35.01;50.04;;
81493;Laerm;70900;51.798;10.954;2023-07-16T10:59:17;40.25;35.40;49.21;;
81493;Laerm;70900;51.798;10.954;2023-07-16T11:01:42;52.53;37.13;71.13;;
81493;Laerm;70900;51.798;10.954;2023-07-16T11:04:08;50.80;37.68;64.38;;
81493;Laerm;70900;51.798;10.954;2023-07-16T11:06:35;50.22;36.86;65.89;;
81493;Laerm;70900;51.798;10.954;2023-07-16T11:09:07;51.45;37.00;65.34;;
81493;Laerm;70900;51.798;10.954;2023-07-16T11:11:32;52.74;36.56;66.41;;
81493;Laerm;70900;51.798;10.954;2023-07-16T11:13:58;47.48;39.53;65.29;;
81493;Laerm;70900;51.798;10.954;2023-07-16T11:16:23;50.06;38.14;63.67;;
81493;Laerm;70900;51.798;10.954;2023-07-16T11:18:49;43.97;34.64;56.94;;
81493;Laerm;70900;51.798;10.954;2023-07-16T11:21:14;53.41;38.11;73.58;;
81493;Laerm;70900;51.798;10.954;2023-07-16T11:23:43;51.63;35.96;64.77;;
81493;Laerm;70900;51.798;10.954;2023-07-16T11:26:09;43.86;37.74;49.35;;
81493;Laerm;70900;51.798;10.954;2023-07-16T11:28:40;51.03;37.65;63.65;;
81493;Laerm;70900;51.798;10.954;2023-07-16T11:31:15;38.85;34.65;48.59;;
81493;Laerm;70900;51.798;10.954;2023-07-16T11:33:46;47.64;33.98;65.86;;
81493;Laerm;70900;51.798;10.954;2023-07-16T11:36:12;51.11;36.66;67.93;;
81493;Laerm;70900;51.798;10.954;2023-07-16T11:38:39;53.18;40.40;67.92;;
81493;Laerm;70900;51.798;10.954;2023-07-16T11:41:05;42.80;39.58;51.86;;
81493;Laerm;70900;51.798;10.954;2023-07-16T11:43:34;47.44;40.85;54.31;;
81493;Laerm;70900;51.798;10.954;2023-07-16T11:46:00;54.51;38.21;66.47;;
81493;Laerm;70900;51.798;10.954;2023-07-16T11:48:26;50.16;38.19;62.42;;
81493;Laerm;70900;51.798;10.954;2023-07-16T11:50:51;52.67;37.58;67.29;;
81493;Laerm;70900;51.798;10.954;2023-07-16T11:53:19;49.82;40.20;60.56;;
81493;Laerm;70900;51.798;10.954;2023-07-16T11:55:48;51.75;41.10;62.10;;
81493;Laerm;70900;51.798;10.954;2023-07-16T11:58:13;47.95;39.67;60.33;;
81493;Laerm;70900;51.798;10.954;2023-07-16T12:00:38;49.38;35.21;63.87;;
81493;Laerm;70900;51.798;10.954;2023-07-16T12:03:04;51.47;38.08;63.30;;
81493;Laerm;70900;51.798;10.954;2023-07-16T12:05:29;51.48;38.08;65.93;;
81493;Laerm;70900;51.798;10.954;2023-07-16T12:07:55;51.04;38.79;65.77;;
81493;Laerm;70900;51.798;10.954;2023-07-16T12:10:20;54.75;39.62;73.11;;
81493;Laerm;70900;51.798;10.954;2023-07-16T12:12:45;51.87;42.26;63.83;;
81493;Laerm;70900;51.798;10.954;2023-07-16T12:15:11;50.86;40.31;67.03;;
81493;Laerm;70900;51.798;10.954;2023-07-16T12:17:37;48.24;40.19;58.73;;
81493;Laerm;70900;51.798;10.954;2023-07-16T12:20:03;45.77;36.20;59.28;;
81493;Laerm;70900;51.798;10.954;2023-07-16T12:22:31;42.96;36.64;52.82;;
81493;Laerm;70900;51.798;10.954;2023-07-16T12:24:56;52.14;36.72;65.98;;
81493;Laerm;70900;51.798;10.954;2023-07-16T12:27:22;48.52;37.10;62.55;;
81493;Laerm;70900;51.798;10.954;2023-07-16T12:29:47;48.86;36.84;64.08;;
81493;Laerm;70900;51.798;10.954;2023-07-16T12:32:13;50.95;36.67;64.23;;
81493;Laerm;70900;51.798;10.954;2023-07-16T12:34:41;46.77;39.21;62.16;;
81493;Laerm;70900;51.798;10.954;2023-07-16T12:37:06;50.14;40.97;60.90;;
81493;Laerm;70900;51.798;10.954;2023-07-16T12:39:32;52.32;36.97;63.62;;
81493;Laerm;70900;51.798;10.954;2023-07-16T12:41:57;51.91;38.78;63.83;;
81493;Laerm;70900;51.798;10.954;2023-07-16T12:44:23;49.32;37.68;63.92;;
81493;Laerm;70900;51.798;10.954;2023-07-16T12:46:48;54.03;36.83;68.14;;
81493;Laerm;70900;51.798;10.954;2023-07-16T12:49:14;50.20;37.79;61.37;;
81493;Laerm;70900;51.798;10.954;2023-07-16T12:51:40;49.73;36.87;62.74;;
81493;Laerm;70900;51.798;10.954;2023-07-16T12:54:05;48.63;37.29;61.50;;
81493;Laerm;70900;51.798;10.954;2023-07-16T12:56:31;46.31;35.43;60.48;;
81493;Laerm;70900;51.798;10.954;2023-07-16T12:58:57;47.47;36.01;63.45;;
81493;Laerm;70900;51.798;10.954;2023-07-16T13:01:23;52.02;36.79;65.79;;
81493;Laerm;70900;51.798;10.954;2023-07-16T13:03:50;45.82;37.47;64.43;;
81493;Laerm;70900;51.798;10.954;2023-07-16T13:06:16;51.27;38.78;64.23;;
81493;Laerm;70900;51.798;10.954;2023-07-16T13:08:41;48.90;37.49;60.01;;
81493;Laerm;70900;51.798;10.954;2023-07-16T13:11:06;48.58;38.58;58.11;;
81493;Laerm;70900;51.798;10.954;2023-07-16T13:13:32;51.03;38.57;67.67;;
81493;Laerm;70900;51.798;10.954;2023-07-16T13:15:57;53.30;38.17;70.46;;
81493;Laerm;70900;51.798;10.954;2023-07-16T13:18:22;50.05;39.17;63.62;;
81493;Laerm;70900;51.798;10.954;2023-07-16T13:20:49;54.94;41.28;70.04;;
81493;Laerm;70900;51.798;10.954;2023-07-16T13:23:15;51.88;37.08;62.74;;
81493;Laerm;70900;51.798;10.954;2023-07-16T13:25:43;53.28;42.62;63.34;;
81493;Laerm;70900;51.798;10.954;2023-07-16T13:28:11;47.02;38.37;69.01;;
81493;Laerm;70900;51.798;10.954;2023-07-16T13:30:36;48.63;37.04;67.07;;
81493;Laerm;70900;51.798;10.954;2023-07-16T13:33:01;53.20;42.22;68.92;;
81493;Laerm;70900;51.798;10.954;2023-07-16T13:35:27;55.64;39.97;71.01;;